Time;durP1;ratioP1;P1;durP2;ratioP2;P2;SDS_P1;SDS_P2;PMS_P1;PMS_P2;Temp;Humidity;BMP_temperature;BMP_pressure;BME280_temperature;BME280_humidity;BME280_pressure;Samples;Min_cycle;Max_cycle;Signal;HPM_P1;HPM_P2
2023/03/21 00:00:31;;;;;;;124.13;35.10;;;9.50;99.90;;;;;;5038995;28;20132;-66
2023/03/21 00:02:56;;;;;;;130.55;35.28;;;9.50;99.90;;;;;;5045596;28;20048;-65
2023/03/21 00:05:22;;;;;;;113.82;33.60;;;9.50;99.90;;;;;;5052409;28;20033;-66
2023/03/21 00:07:48;;;;;;;120.35;33.97;;;9.50;99.90;;;;;;5047373;28;20049;-66
2023/03/21 00:10:15;;;;;;;117.47;32.15;;;9.60;99.90;;;;;;5040268;28;20045;-66
2023/03/21 00:12:41;;;;;;;132.10;37.97;;;9.60;99.90;;;;;;5051633;28;20040;-67
2023/03/21 00:15:08;;;;;;;116.40;33.33;;;9.60;99.90;;;;;;5052388;28;20402;-65
2023/03/21 00:17:35;;;;;;;112.40;31.40;;;9.60;99.90;;;;;;5036716;28;20511;-66
2023/03/21 00:20:05;;;;;;;110.47;30.15;;;9.60;99.90;;;;;;5047827;28;20029;-66
2023/03/21 00:22:33;;;;;;;104.97;31.33;;;9.60;99.90;;;;;;5050098;28;20119;-66
2023/03/21 00:24:58;;;;;;;127.45;34.38;;;9.60;99.90;;;;;;5051669;28;20036;-66
2023/03/21 00:27:24;;;;;;;121.20;33.20;;;9.60;99.90;;;;;;5038138;28;20381;-66
2023/03/21 00:29:50;;;;;;;130.57;33.85;;;9.60;99.90;;;;;;5050835;28;20041;-66
2023/03/21 00:32:16;;;;;;;122.15;33.53;;;9.70;99.90;;;;;;5051508;28;20120;-65
2023/03/21 00:34:42;;;;;;;110.97;31.83;;;9.70;99.90;;;;;;5038744;28;20069;-66
2023/03/21 00:37:10;;;;;;;119.75;31.75;;;9.70;99.90;;;;;;5047555;28;20029;-66
2023/03/21 00:39:36;;;;;;;120.13;31.15;;;9.70;99.90;;;;;;5051094;28;20072;-66
2023/03/21 00:42:04;;;;;;;123.53;32.17;;;9.70;99.90;;;;;;5029894;28;20073;-65
2023/03/21 00:44:35;;;;;;;98.95;27.85;;;9.70;99.90;;;;;;5036905;28;20446;-66
2023/03/21 00:47:04;;;;;;;96.57;29.67;;;9.80;99.90;;;;;;5051528;28;20415;-66
2023/03/21 00:49:32;;;;;;;78.63;25.38;;;9.80;99.90;;;;;;5039563;28;20143;-64
2023/03/21 00:52:02;;;;;;;84.47;25.33;;;9.80;99.90;;;;;;5036848;28;20041;-65
2023/03/21 00:54:28;;;;;;;93.88;25.90;;;9.70;99.90;;;;;;5051600;28;20072;-67
2023/03/21 00:56:53;;;;;;;84.88;26.38;;;9.80;99.90;;;;;;5051685;28;20075;-65
2023/03/21 00:59:19;;;;;;;83.07;25.05;;;9.80;99.90;;;;;;5041390;28;20033;-65
2023/03/21 01:01:45;;;;;;;81.40;24.67;;;9.80;99.90;;;;;;5047260;28;20090;-65
2023/03/21 01:04:13;;;;;;;101.20;26.80;;;9.80;99.90;;;;;;5051281;28;20111;-65
2023/03/21 01:06:41;;;;;;;96.95;26.90;;;9.80;99.90;;;;;;5037777;28;20041;-65
2023/03/21 01:09:19;;;;;;;107.35;29.27;;;9.80;99.90;;;;;;5033313;28;20709;-65
2023/03/21 01:11:45;;;;;;;93.65;27.65;;;9.80;99.90;;;;;;5051146;28;20037;-65
2023/03/21 01:14:12;;;;;;;104.38;30.55;;;9.80;99.90;;;;;;5051572;28;20098;-65
2023/03/21 01:16:38;;;;;;;87.40;28.00;;;9.80;99.90;;;;;;5045235;28;20032;-65
2023/03/21 01:19:05;;;;;;;104.22;30.65;;;9.80;99.90;;;;;;5040496;28;20098;-65
2023/03/21 01:21:31;;;;;;;104.07;28.92;;;9.80;99.90;;;;;;5051140;28;20135;-65
2023/03/21 01:23:56;;;;;;;100.32;29.15;;;9.80;99.90;;;;;;5036857;28;20041;-65
2023/03/21 01:26:22;;;;;;;82.22;27.42;;;9.80;99.90;;;;;;5048358;28;20046;-65
2023/03/21 01:28:48;;;;;;;90.20;28.65;;;9.80;99.90;;;;;;5042456;28;20045;-65
2023/03/21 01:31:16;;;;;;;80.93;26.42;;;9.80;99.90;;;;;;5045520;28;20029;-66
2023/03/21 01:33:42;;;;;;;74.00;25.88;;;9.80;99.90;;;;;;5038836;28;20491;-66
2023/03/21 01:36:14;;;;;;;70.45;23.50;;;9.80;99.90;;;;;;5051226;28;20047;-66
2023/03/21 01:38:41;;;;;;;69.65;23.23;;;9.80;99.90;;;;;;5045566;28;20138;-66
2023/03/21 01:41:11;;;;;;;59.22;21.92;;;9.80;99.90;;;;;;5025250;28;20044;-67
2023/03/21 01:43:38;;;;;;;65.75;23.05;;;9.80;99.90;;;;;;5054667;28;20098;-66
2023/03/21 01:46:43;;;;;;;62.75;21.38;;;9.80;99.90;;;;;;5053545;28;20072;-66
2023/03/21 01:49:11;;;;;;;57.75;21.88;;;9.70;99.90;;;;;;5047166;28;20056;-66
2023/03/21 01:51:42;;;;;;;67.30;23.63;;;9.70;99.90;;;;;;5038070;28;20124;-66
2023/03/21 01:54:13;;;;;;;57.88;24.35;;;9.70;99.90;;;;;;5054882;28;20040;-66
2023/03/21 01:56:41;;;;;;;63.63;23.52;;;9.80;99.90;;;;;;5030996;28;20049;-66
2023/03/21 01:59:27;;;;;;;64.28;23.73;;;9.80;99.90;;;;;;5018437;28;20045;-66
2023/03/21 02:01:55;;;;;;;69.35;25.67;;;9.80;99.90;;;;;;5034161;28;20059;-66
2023/03/21 02:04:26;;;;;;;70.28;24.80;;;9.70;99.90;;;;;;5054528;28;20033;-66
2023/03/21 02:06:57;;;;;;;65.10;23.55;;;9.80;99.90;;;;;;5046360;28;20037;-66
2023/03/21 02:09:26;;;;;;;63.90;23.08;;;9.70;99.90;;;;;;5051346;28;20550;-66
2023/03/21 02:11:54;;;;;;;61.28;22.38;;;9.80;99.90;;;;;;5054611;28;20048;-67
2023/03/21 02:14:20;;;;;;;54.53;21.55;;;9.80;99.90;;;;;;5054616;28;20120;-66
2023/03/21 02:16:58;;;;;;;58.85;21.45;;;9.80;99.90;;;;;;5050493;28;20029;-66
2023/03/21 02:19:39;;;;;;;51.40;20.85;;;9.80;99.90;;;;;;5045355;28;20037;-66
2023/03/21 02:22:23;;;;;;;56.78;21.17;;;9.80;99.90;;;;;;5047385;28;20481;-66
2023/03/21 02:25:28;;;;;;;60.63;20.83;;;9.80;99.90;;;;;;5050154;28;20428;-66
2023/03/21 02:28:12;;;;;;;58.65;20.80;;;9.70;99.90;;;;;;5042565;28;20079;-66
2023/03/21 02:31:00;;;;;;;60.33;20.25;;;9.70;99.90;;;;;;5053795;28;20041;-66
2023/03/21 02:33:38;;;;;;;69.70;22.52;;;9.70;99.90;;;;;;5050784;28;20086;-66
2023/03/21 02:36:25;;;;;;;52.97;18.88;;;9.70;99.90;;;;;;5037109;28;20065;-66
2023/03/21 02:38:59;;;;;;;66.97;20.98;;;9.70;99.90;;;;;;5052332;28;20115;-66
2023/03/21 02:41:42;;;;;;;62.22;20.40;;;9.70;99.90;;;;;;5053871;28;20069;-66
2023/03/21 02:44:25;;;;;;;56.30;19.35;;;9.70;99.90;;;;;;5040730;28;20377;-65
2023/03/21 02:47:00;;;;;;;64.95;20.35;;;9.70;99.90;;;;;;5045883;28;20099;-66
2023/03/21 02:49:33;;;;;;;59.10;19.90;;;9.70;99.90;;;;;;5053602;28;20603;-66
2023/03/21 02:52:01;;;;;;;71.28;22.05;;;9.70;99.90;;;;;;5038062;28;20037;-66
2023/03/21 02:54:29;;;;;;;65.35;19.63;;;9.70;99.90;;;;;;5050901;28;20454;-66
2023/03/21 02:56:58;;;;;;;54.88;18.40;;;9.80;99.90;;;;;;5053400;28;20075;-66
2023/03/21 02:59:25;;;;;;;63.22;20.27;;;9.70;99.90;;;;;;5053173;28;20509;-67
2023/03/21 03:01:52;;;;;;;74.47;21.98;;;9.70;99.90;;;;;;5037189;28;20041;-67
2023/03/21 03:04:26;;;;;;;79.60;23.45;;;9.70;99.90;;;;;;5040740;28;20651;-66
2023/03/21 03:07:07;;;;;;;78.10;22.77;;;9.70;99.90;;;;;;5053757;28;20037;-67
2023/03/21 03:09:58;;;;;;;69.75;20.80;;;9.70;99.90;;;;;;5040553;28;20056;-66
2023/03/21 03:12:43;;;;;;;70.37;21.57;;;9.70;99.90;;;;;;5045922;28;20120;-66
2023/03/21 03:15:32;;;;;;;64.18;20.70;;;9.70;99.90;;;;;;5053347;28;20110;-66
2023/03/21 03:18:09;;;;;;;57.17;19.33;;;9.70;99.90;;;;;;5052988;28;20045;-66
2023/03/21 03:20:44;;;;;;;74.22;22.48;;;9.70;99.90;;;;;;5048329;28;20044;-66
2023/03/21 03:23:34;;;;;;;78.75;23.80;;;9.70;99.90;;;;;;5039492;28;20048;-66
2023/03/21 03:26:13;;;;;;;73.20;22.00;;;9.70;99.90;;;;;;5035434;28;20087;-66
2023/03/21 03:28:43;;;;;;;55.03;19.17;;;9.70;99.90;;;;;;5036783;28;20045;-65
2023/03/21 03:31:12;;;;;;;65.95;20.98;;;9.60;99.90;;;;;;5052843;28;20511;-65
2023/03/21 03:33:42;;;;;;;80.15;24.40;;;9.70;99.90;;;;;;5053202;28;20130;-66
2023/03/21 03:36:13;;;;;;;67.50;22.10;;;9.70;99.90;;;;;;5039134;28;20037;-66
2023/03/21 03:38:40;;;;;;;65.07;21.90;;;9.70;99.90;;;;;;5042281;28;20119;-66
2023/03/21 03:41:20;;;;;;;69.90;23.95;;;9.70;99.90;;;;;;5047046;28;20055;-66
2023/03/21 03:43:49;;;;;;;68.07;23.00;;;9.70;99.90;;;;;;5043272;28;20075;-66
2023/03/21 03:46:30;;;;;;;74.40;23.10;;;9.60;99.90;;;;;;5052065;28;20028;-66
2023/03/21 03:49:09;;;;;;;65.18;22.15;;;9.70;99.90;;;;;;5052426;28;20052;-65
2023/03/21 03:51:51;;;;;;;77.43;25.27;;;9.70;99.90;;;;;;5042760;28;20407;-66
2023/03/21 03:54:25;;;;;;;63.75;20.73;;;9.60;99.90;;;;;;5041582;28;20044;-66
2023/03/21 03:56:51;;;;;;;65.68;20.38;;;9.70;99.90;;;;;;5052146;28;20103;-66
2023/03/21 03:59:23;;;;;;;76.38;22.15;;;9.60;99.90;;;;;;5030346;28;20032;-66
2023/03/21 04:01:50;;;;;;;77.13;24.17;;;9.60;99.90;;;;;;5039343;28;20041;-66
2023/03/21 04:04:15;;;;;;;76.10;25.52;;;9.70;99.90;;;;;;5052345;28;20029;-66
2023/03/21 04:06:44;;;;;;;73.10;23.65;;;9.60;99.90;;;;;;5052410;28;20126;-66
2023/03/21 04:09:10;;;;;;;80.45;24.65;;;9.60;99.90;;;;;;5041600;28;20084;-66
2023/03/21 04:11:36;;;;;;;68.18;22.58;;;9.70;99.90;;;;;;5050891;28;20404;-66
2023/03/21 04:14:01;;;;;;;69.97;22.33;;;9.70;99.90;;;;;;5051555;28;20033;-66
2023/03/21 04:16:30;;;;;;;84.60;25.65;;;9.60;99.90;;;;;;5045819;28;20043;-66
2023/03/21 04:18:55;;;;;;;84.70;25.02;;;9.60;99.90;;;;;;5024842;28;20045;-66
2023/03/21 04:21:21;;;;;;;84.13;24.55;;;9.60;99.90;;;;;;5051435;28;20044;-66
2023/03/21 04:23:46;;;;;;;79.97;24.08;;;9.60;99.90;;;;;;5051859;28;20044;-65
2023/03/21 04:26:12;;;;;;;87.80;26.75;;;9.70;99.90;;;;;;5015595;28;20490;-66
2023/03/21 04:28:38;;;;;;;98.30;28.63;;;9.60;99.90;;;;;;5041816;28;20091;-66
2023/03/21 04:31:05;;;;;;;84.10;26.58;;;9.70;99.90;;;;;;5045834;28;20057;-66
2023/03/21 04:33:31;;;;;;;87.35;25.88;;;9.60;99.90;;;;;;5041320;28;20152;-65
2023/03/21 04:35:57;;;;;;;104.93;29.08;;;9.60;99.90;;;;;;5051037;28;20072;-66
2023/03/21 04:38:25;;;;;;;98.25;27.33;;;9.60;99.90;;;;;;5033117;28;20045;-65
2023/03/21 04:40:51;;;;;;;102.32;27.95;;;9.60;99.90;;;;;;5042880;28;20043;-66
2023/03/21 04:43:16;;;;;;;104.25;30.85;;;9.60;99.90;;;;;;5014772;28;20033;-66
2023/03/21 04:45:43;;;;;;;91.40;29.02;;;9.60;99.90;;;;;;5043212;28;20044;-66
2023/03/21 04:48:08;;;;;;;89.57;28.30;;;9.60;99.90;;;;;;5044176;28;20037;-66
2023/03/21 04:50:34;;;;;;;108.93;30.35;;;9.60;99.90;;;;;;5043140;28;20551;-66
2023/03/21 04:52:59;;;;;;;104.68;29.02;;;9.60;99.90;;;;;;5046409;28;20024;-65
2023/03/21 04:55:28;;;;;;;105.28;32.35;;;9.60;99.90;;;;;;5050875;28;20041;-66
2023/03/21 04:57:53;;;;;;;90.10;28.88;;;9.60;99.90;;;;;;5040303;28;20037;-66
2023/03/21 05:00:19;;;;;;;90.72;29.38;;;9.60;99.90;;;;;;5047332;28;20043;-66
2023/03/21 05:02:45;;;;;;;96.18;29.52;;;9.60;99.90;;;;;;5051374;28;20037;-66
2023/03/21 05:05:12;;;;;;;78.18;26.20;;;9.60;99.90;;;;;;5050610;28;20048;-66
2023/03/21 05:07:39;;;;;;;84.30;29.08;;;9.60;99.90;;;;;;5034696;28;20115;-66
2023/03/21 05:10:06;;;;;;;87.97;28.55;;;9.60;99.90;;;;;;5046357;28;20124;-66
2023/03/21 05:12:31;;;;;;;86.40;26.77;;;9.60;99.90;;;;;;5050905;28;20041;-66
2023/03/21 05:14:57;;;;;;;91.20;27.98;;;9.60;99.90;;;;;;5041560;28;20037;-65
2023/03/21 05:17:23;;;;;;;80.50;26.10;;;9.50;99.90;;;;;;5055370;28;20403;-66
2023/03/21 05:19:51;;;;;;;92.78;28.13;;;9.60;99.90;;;;;;5057993;28;20043;-66
2023/03/21 05:22:18;;;;;;;94.18;27.48;;;9.60;99.90;;;;;;5053930;28;20040;-65
2023/03/21 05:24:49;;;;;;;90.45;27.42;;;9.60;99.90;;;;;;5049514;28;20043;-66
2023/03/21 05:27:32;;;;;;;88.68;26.75;;;9.60;99.90;;;;;;5047334;28;20052;-66
2023/03/21 05:29:59;;;;;;;78.60;25.30;;;9.50;99.90;;;;;;5058090;28;20064;-66
2023/03/21 05:32:25;;;;;;;102.72;30.15;;;9.50;99.90;;;;;;5045523;28;20041;-66
2023/03/21 05:34:51;;;;;;;93.75;26.48;;;9.60;99.90;;;;;;5056441;28;20136;-65
2023/03/21 05:37:16;;;;;;;111.22;30.65;;;9.50;99.90;;;;;;5057417;28;20041;-66
2023/03/21 05:39:42;;;;;;;91.72;26.67;;;9.50;99.90;;;;;;5039659;28;20056;-66
2023/03/21 05:42:08;;;;;;;97.95;27.88;;;9.50;99.90;;;;;;5042737;28;20033;-66
2023/03/21 05:44:36;;;;;;;112.72;30.55;;;9.60;99.90;;;;;;5056841;28;20078;-66
2023/03/21 05:47:05;;;;;;;103.95;29.73;;;9.60;99.90;;;;;;5058072;28;20047;-66
2023/03/21 05:49:31;;;;;;;108.65;28.58;;;9.60;99.90;;;;;;5050783;28;20560;-66
2023/03/21 05:51:57;;;;;;;104.78;29.25;;;9.50;99.90;;;;;;5048647;28;20555;-66
2023/03/21 05:54:23;;;;;;;107.40;28.45;;;9.60;99.90;;;;;;5057163;28;20103;-66
2023/03/21 05:56:48;;;;;;;98.47;29.65;;;9.60;99.90;;;;;;5048461;28;20075;-66
2023/03/21 05:59:15;;;;;;;92.20;26.63;;;9.50;99.90;;;;;;5044059;28;20054;-66
2023/03/21 06:01:41;;;;;;;111.85;31.95;;;9.60;99.90;;;;;;5043134;28;20116;-66
2023/03/21 06:04:07;;;;;;;101.32;29.27;;;9.60;99.90;;;;;;5057384;28;20518;-66
2023/03/21 06:06:32;;;;;;;100.70;28.80;;;9.50;99.90;;;;;;5057267;28;20514;-66
2023/03/21 06:08:59;;;;;;;93.97;28.98;;;9.50;99.90;;;;;;5041245;28;20138;-65
2023/03/21 06:11:30;;;;;;;108.03;32.58;;;9.60;99.90;;;;;;5056765;28;20115;-66
2023/03/21 06:13:55;;;;;;;84.78;25.30;;;9.60;99.90;;;;;;5049754;28;20389;-66
2023/03/21 06:16:21;;;;;;;96.32;27.48;;;9.60;99.90;;;;;;5046125;28;20131;-66
2023/03/21 06:18:47;;;;;;;88.68;26.48;;;9.60;99.90;;;;;;5055474;28;20123;-66
2023/03/21 06:21:12;;;;;;;84.38;26.45;;;9.60;99.90;;;;;;5056045;28;20036;-64
2023/03/21 06:23:38;;;;;;;91.55;27.98;;;9.60;99.90;;;;;;5035306;28;20121;-65
2023/03/21 06:26:04;;;;;;;81.32;24.60;;;9.60;99.90;;;;;;5052507;28;20053;-66
2023/03/21 06:28:30;;;;;;;82.70;26.65;;;9.60;99.90;;;;;;5029483;28;20068;-64
2023/03/21 06:30:56;;;;;;;80.10;22.90;;;9.60;99.90;;;;;;5042161;28;20073;-66
2023/03/21 06:33:22;;;;;;;69.72;22.70;;;9.60;99.90;;;;;;5044263;28;20040;-66
2023/03/21 06:35:52;;;;;;;73.90;25.55;;;9.70;99.90;;;;;;5051297;28;20033;-65
2023/03/21 06:38:17;;;;;;;70.75;23.70;;;9.70;99.90;;;;;;5053376;28;20553;-66
2023/03/21 06:40:45;;;;;;;55.35;19.67;;;9.70;99.90;;;;;;5050602;28;20037;-65
2023/03/21 06:43:10;;;;;;;72.00;22.73;;;9.70;99.90;;;;;;5044970;28;20033;-66
2023/03/21 06:45:36;;;;;;;59.22;19.83;;;9.60;99.90;;;;;;5053208;28;20487;-66
2023/03/21 06:48:01;;;;;;;62.28;21.02;;;9.70;99.90;;;;;;5046131;28;20083;-65
2023/03/21 06:50:27;;;;;;;53.40;19.80;;;9.70;99.90;;;;;;5047431;28;20051;-66
2023/03/21 06:52:52;;;;;;;53.00;18.55;;;9.70;99.90;;;;;;5045529;28;20056;-66
2023/03/21 06:55:21;;;;;;;62.25;21.73;;;9.70;99.90;;;;;;5052775;28;20037;-66
2023/03/21 06:57:47;;;;;;;53.58;20.25;;;9.70;99.90;;;;;;5033588;28;20045;-66
2023/03/21 07:00:13;;;;;;;65.07;23.38;;;9.70;99.90;;;;;;5052948;28;20048;-66
2023/03/21 07:02:39;;;;;;;60.15;20.38;;;9.70;99.90;;;;;;5033718;28;20560;-66
2023/03/21 07:05:05;;;;;;;62.30;21.42;;;9.70;99.90;;;;;;5031910;28;20040;-66
2023/03/21 07:07:31;;;;;;;56.47;22.92;;;9.70;99.90;;;;;;5051304;28;20041;-66
2023/03/21 07:09:56;;;;;;;57.38;22.65;;;9.70;99.90;;;;;;5052215;28;20089;-65
2023/03/21 07:12:22;;;;;;;54.15;24.40;;;9.70;99.90;;;;;;5053476;28;20033;-65
2023/03/21 07:14:48;;;;;;;53.80;20.33;;;9.70;99.90;;;;;;5041390;28;20168;-65
2023/03/21 07:17:13;;;;;;;51.38;21.92;;;9.70;99.90;;;;;;5042476;28;20128;-66
2023/03/21 07:19:39;;;;;;;48.05;19.88;;;9.60;99.90;;;;;;5032908;28;20042;-66
2023/03/21 07:22:04;;;;;;;61.28;22.45;;;9.60;99.90;;;;;;5032705;28;20069;-66
2023/03/21 07:24:30;;;;;;;55.20;22.48;;;9.70;99.90;;;;;;5035507;28;20045;-66
2023/03/21 07:26:55;;;;;;;60.38;23.77;;;9.60;99.90;;;;;;5029082;28;20240;-66
2023/03/21 07:29:22;;;;;;;52.00;20.88;;;9.60;99.90;;;;;;5052462;28;20064;-66
2023/03/21 07:31:48;;;;;;;49.88;20.23;;;9.60;99.90;;;;;;5053360;28;20044;-66
2023/03/21 07:34:15;;;;;;;49.42;21.60;;;9.60;99.90;;;;;;5048417;28;20495;-66
2023/03/21 07:36:41;;;;;;;53.45;21.38;;;9.60;99.90;;;;;;5039177;28;20111;-66
2023/03/21 07:39:07;;;;;;;52.67;23.33;;;9.60;99.90;;;;;;5044414;28;20040;-66
2023/03/21 07:41:33;;;;;;;57.85;23.17;;;9.60;99.90;;;;;;5043712;28;20095;-66
2023/03/21 07:43:58;;;;;;;62.10;24.08;;;9.60;99.90;;;;;;5052719;28;20048;-66
2023/03/21 07:46:24;;;;;;;55.33;22.40;;;9.60;99.90;;;;;;5050317;28;20102;-66
2023/03/21 07:48:49;;;;;;;60.38;23.42;;;9.70;99.90;;;;;;5047690;28;20041;-66
2023/03/21 07:51:15;;;;;;;52.05;21.77;;;9.60;99.90;;;;;;5048906;28;20033;-65
2023/03/21 07:53:40;;;;;;;59.65;23.17;;;9.60;99.90;;;;;;5052871;28;20041;-67
2023/03/21 07:56:07;;;;;;;56.30;22.23;;;9.60;99.90;;;;;;5036177;28;20040;-67
2023/03/21 07:58:33;;;;;;;61.13;24.35;;;9.60;99.90;;;;;;5051622;28;20064;-68
2023/03/21 08:00:59;;;;;;;56.28;22.90;;;9.70;99.90;;;;;;5051146;28;20041;-66
2023/03/21 08:03:28;;;;;;;51.15;20.92;;;9.60;99.90;;;;;;5047484;28;20131;-67
2023/03/21 08:05:54;;;;;;;47.50;21.17;;;9.70;99.90;;;;;;5024808;28;20091;-67
2023/03/21 08:08:19;;;;;;;50.28;22.30;;;9.60;99.90;;;;;;5037157;28;20048;-67
2023/03/21 08:10:45;;;;;;;51.58;21.08;;;9.70;99.90;;;;;;5050937;28;20595;-67
2023/03/21 08:13:11;;;;;;;53.30;24.55;;;9.60;99.90;;;;;;5030633;28;20484;-67
2023/03/21 08:15:41;;;;;;;52.30;22.15;;;9.60;99.90;;;;;;5037855;28;20479;-67
2023/03/21 08:18:07;;;;;;;54.00;23.48;;;9.60;99.90;;;;;;5045425;28;20136;-67
2023/03/21 08:20:33;;;;;;;54.20;23.70;;;9.70;99.90;;;;;;5041220;28;20037;-67
2023/03/21 08:22:59;;;;;;;57.88;23.35;;;9.80;99.90;;;;;;5041084;28;20083;-67
2023/03/21 08:25:24;;;;;;;50.58;22.05;;;9.80;99.90;;;;;;5051062;28;20101;-67
2023/03/21 08:27:50;;;;;;;49.88;20.92;;;9.80;99.90;;;;;;5021083;28;20045;-67
2023/03/21 08:30:19;;;;;;;56.92;22.67;;;9.90;99.90;;;;;;5045609;28;20037;-67
2023/03/21 08:32:45;;;;;;;50.53;21.63;;;9.90;99.90;;;;;;5050530;28;20043;-68
2023/03/21 08:35:12;;;;;;;47.15;19.92;;;9.90;99.90;;;;;;5051602;28;20033;-70
2023/03/21 08:37:39;;;;;;;45.70;20.48;;;9.90;99.90;;;;;;5049842;28;20033;-69
2023/03/21 08:40:12;;;;;;;44.17;20.35;;;9.90;99.90;;;;;;5040906;28;20037;-70
2023/03/21 08:42:39;;;;;;;51.13;21.33;;;10.00;99.90;;;;;;5043280;28;20047;-67
2023/03/21 08:45:05;;;;;;;46.05;19.92;;;10.00;99.90;;;;;;5044026;28;20114;-67
2023/03/21 08:47:32;;;;;;;52.92;20.73;;;10.00;99.90;;;;;;5041789;28;20038;-69
2023/03/21 08:49:58;;;;;;;49.45;21.90;;;10.00;99.90;;;;;;5050586;28;20033;-68
2023/03/21 08:52:25;;;;;;;54.00;20.33;;;9.90;99.90;;;;;;5047803;28;20045;-68
2023/03/21 08:54:51;;;;;;;47.55;20.60;;;9.90;99.90;;;;;;5050326;28;20060;-68
2023/03/21 08:57:17;;;;;;;45.25;21.38;;;10.00;99.90;;;;;;5051114;28;20114;-69
2023/03/21 08:59:42;;;;;;;42.58;20.13;;;9.90;99.90;;;;;;5048588;28;20103;-68
2023/03/21 09:02:12;;;;;;;43.55;18.92;;;9.90;99.90;;;;;;5045802;28;20106;-68
2023/03/21 09:04:38;;;;;;;46.55;20.83;;;10.00;99.90;;;;;;5050257;28;20502;-68
2023/03/21 09:07:04;;;;;;;40.42;18.13;;;10.00;99.90;;;;;;5051264;28;20041;-68
2023/03/21 09:09:30;;;;;;;45.88;19.35;;;10.00;99.90;;;;;;5045264;28;20041;-68
2023/03/21 09:11:56;;;;;;;43.50;21.75;;;10.00;99.90;;;;;;5044025;28;20036;-68
2023/03/21 09:14:22;;;;;;;49.53;21.63;;;9.90;99.90;;;;;;5050482;28;20375;-68
2023/03/21 09:16:47;;;;;;;40.55;19.42;;;10.00;99.90;;;;;;5051321;28;20033;-68
2023/03/21 09:19:13;;;;;;;46.22;21.48;;;10.00;99.90;;;;;;5033338;28;20118;-68
2023/03/21 09:21:39;;;;;;;43.53;17.95;;;10.10;99.90;;;;;;5047082;28;20037;-68
2023/03/21 09:24:05;;;;;;;44.92;20.35;;;10.10;99.90;;;;;;5051085;28;20053;-68
2023/03/21 09:26:31;;;;;;;38.33;19.98;;;10.10;99.90;;;;;;5050916;28;20048;-68
2023/03/21 09:28:57;;;;;;;43.92;20.17;;;10.10;99.90;;;;;;5024994;28;20060;-68
2023/03/21 09:31:23;;;;;;;34.42;15.10;;;10.20;99.90;;;;;;5041231;28;20045;-68
2023/03/21 09:33:50;;;;;;;40.05;18.60;;;10.20;99.90;;;;;;5043158;28;20040;-68
2023/03/21 09:36:19;;;;;;;37.22;19.27;;;10.20;99.90;;;;;;5036095;28;20037;-68
2023/03/21 09:38:47;;;;;;;39.78;18.40;;;10.30;99.90;;;;;;5044159;28;20029;-68
2023/03/21 09:41:24;;;;;;;44.45;19.35;;;10.30;99.90;;;;;;5040282;28;20427;-68
2023/03/21 09:44:10;;;;;;;41.78;19.02;;;10.30;99.90;;;;;;5032492;28;20045;-68
2023/03/21 09:47:02;;;;;;;35.15;17.58;;;10.40;99.90;;;;;;5032919;28;20045;-68
2023/03/21 09:49:30;;;;;;;;;;;10.40;99.90;;;;;;5019821;28;20055;-68
2023/03/21 09:51:58;;;;;;;34.72;17.98;;;10.40;99.90;;;;;;5040252;28;19921;-68
2023/03/21 09:54:27;;;;;;;32.80;16.55;;;10.40;99.90;;;;;;5030431;28;20047;-69
2023/03/21 09:56:57;;;;;;;38.05;17.80;;;10.50;99.90;;;;;;5031693;28;20037;-68
2023/03/21 09:59:36;;;;;;;35.45;19.70;;;10.50;99.90;;;;;;5038224;28;20076;-68
2023/03/21 10:02:30;;;;;;;31.80;16.73;;;10.50;99.90;;;;;;5050156;28;20041;-69
2023/03/21 10:04:56;;;;;;;39.25;18.55;;;10.50;99.90;;;;;;5051550;28;20053;-68
2023/03/21 10:07:22;;;;;;;34.15;19.65;;;10.50;99.90;;;;;;5036570;28;20052;-68
2023/03/21 10:09:51;;;;;;;36.25;17.60;;;10.50;99.90;;;;;;5043427;28;20037;-68
2023/03/21 10:12:21;;;;;;;31.35;17.80;;;10.50;99.90;;;;;;5033672;28;20033;-68
2023/03/21 10:14:50;;;;;;;32.50;17.58;;;10.60;99.90;;;;;;5034463;28;20122;-68
2023/03/21 10:17:32;;;;;;;29.45;16.45;;;10.60;99.90;;;;;;5049357;28;20045;-68
2023/03/21 10:20:24;;;;;;;28.27;16.38;;;10.60;99.90;;;;;;5041614;28;20135;-68
2023/03/21 10:22:51;;;;;;;34.85;16.52;;;10.60;99.90;;;;;;5046994;28;20083;-68
2023/03/21 10:25:21;;;;;;;33.40;17.27;;;10.60;99.90;;;;;;5051248;28;20025;-69
2023/03/21 10:27:48;;;;;;;29.48;17.38;;;10.60;99.90;;;;;;5025062;28;20499;-69
2023/03/21 10:30:43;;;;;;;29.70;16.85;;;10.70;99.90;;;;;;5043988;28;20526;-69
2023/03/21 10:33:13;;;;;;;33.40;16.95;;;10.80;99.90;;;;;;5026607;28;20084;-68
2023/03/21 10:35:43;;;;;;;33.15;18.75;;;10.90;99.90;;;;;;5052725;28;20044;-68
2023/03/21 10:38:16;;;;;;;31.92;16.50;;;10.90;99.90;;;;;;5053722;28;20033;-68
2023/03/21 10:40:42;;;;;;;29.58;15.73;;;10.90;99.90;;;;;;5054167;28;20402;-68
2023/03/21 10:43:17;;;;;;;32.05;17.00;;;10.90;99.90;;;;;;5037654;28;20041;-68
2023/03/21 10:45:46;;;;;;;28.25;15.75;;;11.00;99.90;;;;;;5037883;28;20403;-69
2023/03/21 10:48:12;;;;;;;27.85;15.77;;;11.00;99.90;;;;;;5053323;28;20037;-68
2023/03/21 10:50:37;;;;;;;30.80;17.00;;;11.00;99.90;;;;;;5048436;28;20049;-68
2023/03/21 10:53:19;;;;;;;27.08;15.85;;;11.00;99.90;;;;;;5047681;28;20059;-68
2023/03/21 10:55:47;;;;;;;;;;;11.10;99.90;;;;;;5046316;28;20037;-68
2023/03/21 10:58:17;;;;;;;27.27;13.98;;;11.20;99.90;;;;;;5053117;28;19924;-69
2023/03/21 11:00:44;;;;;;;37.50;14.77;;;11.30;99.90;;;;;;5043145;28;20048;-68
2023/03/21 11:03:28;;;;;;;28.75;15.27;;;11.30;99.90;;;;;;5047173;28;20406;-68
2023/03/21 11:06:14;;;;;;;29.30;16.25;;;11.40;99.90;;;;;;5040475;28;20123;-69
2023/03/21 11:08:50;;;;;;;28.02;14.45;;;11.50;99.90;;;;;;5047505;28;20067;-69
2023/03/21 11:11:27;;;;;;;24.10;13.27;;;11.40;99.90;;;;;;5052461;28;20465;-68
2023/03/21 11:14:35;;;;;;;25.13;13.00;;;11.40;99.90;;;;;;5052829;28;20029;-68
2023/03/21 11:17:01;;;;;;;21.90;10.95;;;11.40;99.90;;;;;;5032152;28;20093;-68
2023/03/21 11:19:32;;;;;;;21.98;11.75;;;11.30;99.90;;;;;;5037503;28;20077;-68
2023/03/21 11:22:04;;;;;;;21.48;12.32;;;11.40;99.90;;;;;;5050448;28;20483;-68
2023/03/21 11:24:30;;;;;;;20.60;11.85;;;11.40;99.90;;;;;;5053322;28;20044;-68
2023/03/21 11:26:57;;;;;;;21.35;11.27;;;11.50;99.90;;;;;;5037213;28;20171;-69
2023/03/21 11:29:33;;;;;;;24.83;11.57;;;11.50;99.90;;;;;;5042229;28;20045;-69
2023/03/21 11:32:08;;;;;;;20.48;11.32;;;11.70;99.90;;;;;;5052358;28;20029;-68
2023/03/21 11:34:40;;;;;;;19.55;10.52;;;11.90;99.90;;;;;;5042872;28;20064;-68
2023/03/21 11:37:22;;;;;;;21.27;10.23;;;11.80;99.90;;;;;;5049131;28;20036;-68
2023/03/21 11:39:54;;;;;;;18.75;10.40;;;11.80;99.90;;;;;;5027550;28;20491;-68
2023/03/21 11:42:30;;;;;;;18.92;9.93;;;11.90;99.90;;;;;;5030029;28;20033;-69
2023/03/21 11:45:00;;;;;;;19.48;9.98;;;12.10;99.90;;;;;;5045794;28;20032;-68
2023/03/21 11:47:26;;;;;;;17.75;10.60;;;12.20;99.90;;;;;;5050105;28;20133;-69
2023/03/21 11:49:52;;;;;;;16.23;9.00;;;12.10;99.90;;;;;;5038486;28;20052;-69
2023/03/21 11:52:30;;;;;;;17.25;9.55;;;12.40;99.90;;;;;;5037233;28;20037;-69
2023/03/21 11:55:04;;;;;;;15.00;9.52;;;12.50;99.90;;;;;;5047268;28;20116;-70
2023/03/21 11:57:50;;;;;;;17.05;9.15;;;12.70;99.90;;;;;;5024574;28;20036;-68
2023/03/21 12:00:58;;;;;;;18.20;9.93;;;12.80;99.90;;;;;;5028435;28;20045;-68
2023/03/21 12:03:52;;;;;;;19.25;9.63;;;13.00;99.90;;;;;;5040451;28;20053;-69
2023/03/21 12:06:38;;;;;;;16.48;9.48;;;13.00;99.90;;;;;;5022266;28;20137;-69
2023/03/21 12:09:11;;;;;;;15.80;9.10;;;13.00;99.90;;;;;;5049358;28;20033;-69
2023/03/21 12:11:45;;;;;;;15.18;8.50;;;13.10;99.90;;;;;;5051761;28;20091;-68
2023/03/21 12:14:44;;;;;;;14.63;8.20;;;13.00;99.90;;;;;;5033917;28;20041;-68
2023/03/21 12:17:28;;;;;;;14.82;9.00;;;12.90;99.90;;;;;;5040884;28;20059;-69
2023/03/21 12:19:59;;;;;;;15.27;8.32;;;12.80;99.90;;;;;;5045510;28;20045;-68
2023/03/21 12:22:44;;;;;;;18.02;8.57;;;13.00;99.90;;;;;;5049041;28;20079;-69
2023/03/21 12:25:27;;;;;;;14.70;9.80;;;13.00;99.90;;;;;;5033254;28;20052;-69
2023/03/21 12:28:20;;;;;;;17.50;9.57;;;13.10;99.90;;;;;;5041590;28;20040;-68
2023/03/21 12:31:20;;;;;;;15.23;8.50;;;13.10;99.90;;;;;;5051671;28;20403;-68
2023/03/21 12:34:26;;;;;;;17.95;8.52;;;13.00;99.90;;;;;;4989489;28;20098;-69
2023/03/21 12:37:16;;;;;;;13.38;7.93;;;13.20;99.90;;;;;;5044356;28;20032;-69
2023/03/21 12:39:46;;;;;;;15.68;8.50;;;12.90;99.90;;;;;;5030029;28;20053;-69
2023/03/21 12:42:12;;;;;;;12.75;7.93;;;12.80;99.90;;;;;;5036522;28;20037;-68
2023/03/21 12:45:00;;;;;;;14.48;8.65;;;12.80;99.90;;;;;;5049626;28;20060;-69
2023/03/21 12:47:29;;;;;;;13.32;8.52;;;12.70;99.90;;;;;;5049384;28;20045;-69
2023/03/21 12:50:01;;;;;;;17.27;10.30;;;12.60;99.90;;;;;;5047354;28;20053;-68